sensor_id;sensor_type;location;lat;lon;timestamp;temperature;humidity
22360;DHT22;11347;52.030;4.690;2022-10-31T00:00:52;18.60;72.10
22360;DHT22;11347;52.030;4.690;2022-10-31T00:03:18;18.60;72.00
22360;DHT22;11347;52.030;4.690;2022-10-31T00:05:45;18.60;72.10
22360;DHT22;11347;52.030;4.690;2022-10-31T00:08:11;18.60;72.10
22360;DHT22;11347;52.030;4.690;2022-10-31T00:10:41;18.60;72.00
22360;DHT22;11347;52.030;4.690;2022-10-31T00:13:08;18.60;72.10
22360;DHT22;11347;52.030;4.690;2022-10-31T00:15:36;18.60;72.00
22360;DHT22;11347;52.030;4.690;2022-10-31T00:18:02;18.60;72.00
22360;DHT22;11347;52.030;4.690;2022-10-31T00:20:29;18.60;72.00
22360;DHT22;11347;52.030;4.690;2022-10-31T00:23:02;18.60;72.10
22360;DHT22;11347;52.030;4.690;2022-10-31T00:25:29;18.60;72.10
22360;DHT22;11347;52.030;4.690;2022-10-31T00:27:57;18.60;72.10
22360;DHT22;11347;52.030;4.690;2022-10-31T00:30:23;18.50;72.00
22360;DHT22;11347;52.030;4.690;2022-10-31T00:32:49;18.60;72.00
22360;DHT22;11347;52.030;4.690;2022-10-31T00:35:14;18.60;72.00
22360;DHT22;11347;52.030;4.690;2022-10-31T00:37:40;18.60;72.00
22360;DHT22;11347;52.030;4.690;2022-10-31T00:40:06;18.50;72.00
22360;DHT22;11347;52.030;4.690;2022-10-31T00:42:31;18.50;72.10
22360;DHT22;11347;52.030;4.690;2022-10-31T00:44:57;18.50;72.10
22360;DHT22;11347;52.030;4.690;2022-10-31T00:47:23;18.50;72.00
22360;DHT22;11347;52.030;4.690;2022-10-31T00:49:48;18.50;72.00
22360;DHT22;11347;52.030;4.690;2022-10-31T00:52:14;18.50;71.90
22360;DHT22;11347;52.030;4.690;2022-10-31T00:54:39;18.50;72.00
22360;DHT22;11347;52.030;4.690;2022-10-31T00:57:05;18.50;71.90
22360;DHT22;11347;52.030;4.690;2022-10-31T00:59:30;18.50;71.90
22360;DHT22;11347;52.030;4.690;2022-10-31T01:01:56;18.50;72.00
22360;DHT22;11347;52.030;4.690;2022-10-31T01:04:21;18.50;72.00
22360;DHT22;11347;52.030;4.690;2022-10-31T01:06:47;18.50;72.00
22360;DHT22;11347;52.030;4.690;2022-10-31T01:09:12;19.10;72.50
22360;DHT22;11347;52.030;4.690;2022-10-31T01:11:38;18.50;72.40
22360;DHT22;11347;52.030;4.690;2022-10-31T01:14:03;18.50;71.90
22360;DHT22;11347;52.030;4.690;2022-10-31T01:16:29;18.50;71.90
22360;DHT22;11347;52.030;4.690;2022-10-31T01:18:55;18.50;71.90
22360;DHT22;11347;52.030;4.690;2022-10-31T01:21:27;18.50;71.80
22360;DHT22;11347;52.030;4.690;2022-10-31T01:23:54;18.40;71.90
22360;DHT22;11347;52.030;4.690;2022-10-31T01:26:21;18.40;71.80
22360;DHT22;11347;52.030;4.690;2022-10-31T01:29:05;18.40;71.80
22360;DHT22;11347;52.030;4.690;2022-10-31T01:31:33;18.40;71.80
22360;DHT22;11347;52.030;4.690;2022-10-31T01:33:59;18.40;71.80
22360;DHT22;11347;52.030;4.690;2022-10-31T01:36:34;18.40;71.80
22360;DHT22;11347;52.030;4.690;2022-10-31T01:39:03;18.40;71.70
22360;DHT22;11347;52.030;4.690;2022-10-31T01:41:31;18.40;71.90
22360;DHT22;11347;52.030;4.690;2022-10-31T01:44:00;18.40;71.80
22360;DHT22;11347;52.030;4.690;2022-10-31T01:46:31;18.40;71.80
22360;DHT22;11347;52.030;4.690;2022-10-31T01:49:02;18.40;71.80
22360;DHT22;11347;52.030;4.690;2022-10-31T01:51:33;18.40;71.80
22360;DHT22;11347;52.030;4.690;2022-10-31T01:54:07;18.40;72.00
22360;DHT22;11347;52.030;4.690;2022-10-31T01:56:34;18.40;72.20
22360;DHT22;11347;52.030;4.690;2022-10-31T01:59:05;18.40;72.20
22360;DHT22;11347;52.030;4.690;2022-10-31T02:01:32;18.40;72.30
22360;DHT22;11347;52.030;4.690;2022-10-31T02:03:58;18.40;72.40
22360;DHT22;11347;52.030;4.690;2022-10-31T02:06:37;18.40;72.40
22360;DHT22;11347;52.030;4.690;2022-10-31T02:09:05;18.40;72.50
22360;DHT22;11347;52.030;4.690;2022-10-31T02:11:31;18.40;72.50
22360;DHT22;11347;52.030;4.690;2022-10-31T02:13:58;18.40;72.60
22360;DHT22;11347;52.030;4.690;2022-10-31T02:16:24;18.30;72.40
22360;DHT22;11347;52.030;4.690;2022-10-31T02:18:50;18.30;72.80
22360;DHT22;11347;52.030;4.690;2022-10-31T02:21:39;18.40;72.90
22360;DHT22;11347;52.030;4.690;2022-10-31T02:27:02;18.40;73.00
22360;DHT22;11347;52.030;4.690;2022-10-31T02:29:42;18.30;72.80
22360;DHT22;11347;52.030;4.690;2022-10-31T02:35:14;18.30;72.70
22360;DHT22;11347;52.030;4.690;2022-10-31T02:37:57;18.30;72.70
22360;DHT22;11347;52.030;4.690;2022-10-31T02:40:37;18.30;72.70
22360;DHT22;11347;52.030;4.690;2022-10-31T02:43:45;18.30;72.70
22360;DHT22;11347;52.030;4.690;2022-10-31T02:46:22;18.30;72.70
22360;DHT22;11347;52.030;4.690;2022-10-31T02:48:53;18.30;72.60
22360;DHT22;11347;52.030;4.690;2022-10-31T02:51:20;18.30;72.70
22360;DHT22;11347;52.030;4.690;2022-10-31T02:53:46;18.30;73.00
22360;DHT22;11347;52.030;4.690;2022-10-31T02:56:15;18.30;73.00
22360;DHT22;11347;52.030;4.690;2022-10-31T02:58:51;18.30;73.00
22360;DHT22;11347;52.030;4.690;2022-10-31T03:07:11;18.30;73.00
22360;DHT22;11347;52.030;4.690;2022-10-31T03:10:03;18.30;73.00
22360;DHT22;11347;52.030;4.690;2022-10-31T03:12:38;18.30;73.00
22360;DHT22;11347;52.030;4.690;2022-10-31T03:15:14;18.30;73.00
22360;DHT22;11347;52.030;4.690;2022-10-31T03:18:03;18.30;73.00
22360;DHT22;11347;52.030;4.690;2022-10-31T03:20:52;18.30;73.00
22360;DHT22;11347;52.030;4.690;2022-10-31T03:23:22;18.30;73.00
22360;DHT22;11347;52.030;4.690;2022-10-31T03:25:48;18.30;73.00
22360;DHT22;11347;52.030;4.690;2022-10-31T03:28:17;18.30;73.00
22360;DHT22;11347;52.030;4.690;2022-10-31T03:30:45;18.20;72.90
22360;DHT22;11347;52.030;4.690;2022-10-31T03:33:17;18.20;72.90
22360;DHT22;11347;52.030;4.690;2022-10-31T03:35:48;18.20;72.90
22360;DHT22;11347;52.030;4.690;2022-10-31T03:38:16;18.20;72.90
22360;DHT22;11347;52.030;4.690;2022-10-31T03:40:44;18.20;72.90
22360;DHT22;11347;52.030;4.690;2022-10-31T03:43:16;18.40;73.10
22360;DHT22;11347;52.030;4.690;2022-10-31T03:45:46;18.20;72.90
22360;DHT22;11347;52.030;4.690;2022-10-31T03:48:17;18.20;72.90
22360;DHT22;11347;52.030;4.690;2022-10-31T03:53:34;18.20;72.90
22360;DHT22;11347;52.030;4.690;2022-10-31T03:56:13;18.20;72.90
22360;DHT22;11347;52.030;4.690;2022-10-31T03:58:48;18.20;72.90
22360;DHT22;11347;52.030;4.690;2022-10-31T04:01:19;18.20;72.90
22360;DHT22;11347;52.030;4.690;2022-10-31T04:03:45;18.20;72.90
22360;DHT22;11347;52.030;4.690;2022-10-31T04:06:14;18.20;72.90
22360;DHT22;11347;52.030;4.690;2022-10-31T04:08:45;18.20;72.90
22360;DHT22;11347;52.030;4.690;2022-10-31T04:11:15;18.20;72.90
22360;DHT22;11347;52.030;4.690;2022-10-31T04:13:43;18.20;72.90
22360;DHT22;11347;52.030;4.690;2022-10-31T04:16:11;18.20;72.90
22360;DHT22;11347;52.030;4.690;2022-10-31T04:18:37;18.20;72.90
22360;DHT22;11347;52.030;4.690;2022-10-31T04:21:06;18.20;72.90
22360;DHT22;11347;52.030;4.690;2022-10-31T04:23:32;18.20;72.90
22360;DHT22;11347;52.030;4.690;2022-10-31T04:25:58;18.20;72.90
22360;DHT22;11347;52.030;4.690;2022-10-31T04:28:24;18.20;72.90
22360;DHT22;11347;52.030;4.690;2022-10-31T04:30:49;18.20;72.90
22360;DHT22;11347;52.030;4.690;2022-10-31T04:33:15;18.20;72.90
22360;DHT22;11347;52.030;4.690;2022-10-31T04:35:40;18.20;72.90
22360;DHT22;11347;52.030;4.690;2022-10-31T04:38:06;18.20;72.90
22360;DHT22;11347;52.030;4.690;2022-10-31T04:40:32;18.20;72.90
22360;DHT22;11347;52.030;4.690;2022-10-31T04:42:57;18.20;72.90
22360;DHT22;11347;52.030;4.690;2022-10-31T04:45:23;18.10;72.80
22360;DHT22;11347;52.030;4.690;2022-10-31T04:47:48;18.20;72.90
22360;DHT22;11347;52.030;4.690;2022-10-31T04:50:14;18.10;72.80
22360;DHT22;11347;52.030;4.690;2022-10-31T04:52:40;18.10;73.10
22360;DHT22;11347;52.030;4.690;2022-10-31T04:55:06;18.10;73.10
22360;DHT22;11347;52.030;4.690;2022-10-31T04:57:32;18.10;73.00
22360;DHT22;11347;52.030;4.690;2022-10-31T04:59:58;18.20;73.60
22360;DHT22;11347;52.030;4.690;2022-10-31T05:02:23;18.10;73.40
22360;DHT22;11347;52.030;4.690;2022-10-31T05:04:49;18.10;72.80
22360;DHT22;11347;52.030;4.690;2022-10-31T05:07:14;18.10;72.90
22360;DHT22;11347;52.030;4.690;2022-10-31T05:09:40;18.10;72.80
22360;DHT22;11347;52.030;4.690;2022-10-31T05:12:05;18.10;72.90
22360;DHT22;11347;52.030;4.690;2022-10-31T05:14:31;18.10;73.20
22360;DHT22;11347;52.030;4.690;2022-10-31T05:16:56;18.10;73.30
22360;DHT22;11347;52.030;4.690;2022-10-31T05:19:22;18.10;73.30
22360;DHT22;11347;52.030;4.690;2022-10-31T05:21:47;18.10;73.40
22360;DHT22;11347;52.030;4.690;2022-10-31T05:24:13;18.10;73.40
22360;DHT22;11347;52.030;4.690;2022-10-31T05:26:38;18.10;73.40
22360;DHT22;11347;52.030;4.690;2022-10-31T05:29:04;18.10;73.30
22360;DHT22;11347;52.030;4.690;2022-10-31T05:31:29;18.10;73.40
22360;DHT22;11347;52.030;4.690;2022-10-31T05:33:55;18.10;73.40
22360;DHT22;11347;52.030;4.690;2022-10-31T05:36:20;18.10;73.40
22360;DHT22;11347;52.030;4.690;2022-10-31T05:38:46;18.10;73.40
22360;DHT22;11347;52.030;4.690;2022-10-31T05:41:11;18.10;73.10
22360;DHT22;11347;52.030;4.690;2022-10-31T05:43:37;18.00;73.00
22360;DHT22;11347;52.030;4.690;2022-10-31T05:46:02;18.10;73.20
22360;DHT22;11347;52.030;4.690;2022-10-31T05:48:28;18.00;73.10
22360;DHT22;11347;52.030;4.690;2022-10-31T05:50:54;18.00;73.50
22360;DHT22;11347;52.030;4.690;2022-10-31T05:53:19;18.00;73.50
22360;DHT22;11347;52.030;4.690;2022-10-31T05:55:45;18.10;73.50
22360;DHT22;11347;52.030;4.690;2022-10-31T05:58:10;18.00;73.30
22360;DHT22;11347;52.030;4.690;2022-10-31T06:00:36;18.00;73.30
22360;DHT22;11347;52.030;4.690;2022-10-31T06:03:08;18.00;73.20
22360;DHT22;11347;52.030;4.690;2022-10-31T06:05:34;18.00;73.10
22360;DHT22;11347;52.030;4.690;2022-10-31T06:08:00;18.00;73.10
22360;DHT22;11347;52.030;4.690;2022-10-31T06:10:26;18.00;72.80
22360;DHT22;11347;52.030;4.690;2022-10-31T06:12:53;18.00;72.80
22360;DHT22;11347;52.030;4.690;2022-10-31T06:15:18;18.00;72.80
22360;DHT22;11347;52.030;4.690;2022-10-31T06:17:44;18.00;72.80
22360;DHT22;11347;52.030;4.690;2022-10-31T06:20:10;18.00;72.80
22360;DHT22;11347;52.030;4.690;2022-10-31T06:22:36;18.00;72.80
22360;DHT22;11347;52.030;4.690;2022-10-31T06:25:01;18.00;72.80
22360;DHT22;11347;52.030;4.690;2022-10-31T06:27:27;18.00;72.80
22360;DHT22;11347;52.030;4.690;2022-10-31T06:29:53;18.00;72.80
22360;DHT22;11347;52.030;4.690;2022-10-31T06:32:18;18.00;72.80
22360;DHT22;11347;52.030;4.690;2022-10-31T06:34:44;18.00;72.80
22360;DHT22;11347;52.030;4.690;2022-10-31T06:37:11;18.00;72.80
22360;DHT22;11347;52.030;4.690;2022-10-31T06:39:37;18.00;72.80
22360;DHT22;11347;52.030;4.690;2022-10-31T06:42:03;18.00;72.80
22360;DHT22;11347;52.030;4.690;2022-10-31T06:44:29;18.00;72.80
22360;DHT22;11347;52.030;4.690;2022-10-31T06:46:55;18.00;72.80
22360;DHT22;11347;52.030;4.690;2022-10-31T06:49:20;17.90;72.70
22360;DHT22;11347;52.030;4.690;2022-10-31T06:51:49;17.90;72.70
22360;DHT22;11347;52.030;4.690;2022-10-31T06:54:16;18.00;72.80
22360;DHT22;11347;52.030;4.690;2022-10-31T06:56:42;17.90;72.70
22360;DHT22;11347;52.030;4.690;2022-10-31T06:59:07;17.90;72.70
22360;DHT22;11347;52.030;4.690;2022-10-31T07:01:33;17.90;72.70
22360;DHT22;11347;52.030;4.690;2022-10-31T07:03:58;17.90;72.70
22360;DHT22;11347;52.030;4.690;2022-10-31T07:06:24;17.90;72.70
22360;DHT22;11347;52.030;4.690;2022-10-31T07:08:50;17.90;72.70
22360;DHT22;11347;52.030;4.690;2022-10-31T07:11:15;17.90;72.70
22360;DHT22;11347;52.030;4.690;2022-10-31T07:13:41;17.90;72.70
22360;DHT22;11347;52.030;4.690;2022-10-31T07:16:07;18.00;72.80
22360;DHT22;11347;52.030;4.690;2022-10-31T07:18:33;17.90;72.70
22360;DHT22;11347;52.030;4.690;2022-10-31T07:20:59;17.90;72.70
22360;DHT22;11347;52.030;4.690;2022-10-31T07:23:24;18.00;72.80
22360;DHT22;11347;52.030;4.690;2022-10-31T07:25:58;18.00;72.80
22360;DHT22;11347;52.030;4.690;2022-10-31T07:28:24;17.90;72.70
22360;DHT22;11347;52.030;4.690;2022-10-31T07:30:55;18.00;72.80
22360;DHT22;11347;52.030;4.690;2022-10-31T07:33:21;17.90;72.70
22360;DHT22;11347;52.030;4.690;2022-10-31T07:35:47;17.90;72.70
22360;DHT22;11347;52.030;4.690;2022-10-31T07:38:14;17.90;72.70
22360;DHT22;11347;52.030;4.690;2022-10-31T07:40:41;18.40;73.10
22360;DHT22;11347;52.030;4.690;2022-10-31T07:43:07;18.00;72.80
22360;DHT22;11347;52.030;4.690;2022-10-31T07:45:33;18.00;72.80
22360;DHT22;11347;52.030;4.690;2022-10-31T07:47:59;18.00;72.80
22360;DHT22;11347;52.030;4.690;2022-10-31T07:50:29;18.00;72.80
22360;DHT22;11347;52.030;4.690;2022-10-31T07:53:03;18.00;72.80
22360;DHT22;11347;52.030;4.690;2022-10-31T07:55:29;18.00;72.80
22360;DHT22;11347;52.030;4.690;2022-10-31T07:58:10;18.00;72.80
22360;DHT22;11347;52.030;4.690;2022-10-31T08:00:37;18.10;72.80
22360;DHT22;11347;52.030;4.690;2022-10-31T08:03:08;18.10;72.80
22360;DHT22;11347;52.030;4.690;2022-10-31T08:05:35;18.00;72.80
22360;DHT22;11347;52.030;4.690;2022-10-31T08:08:01;18.10;72.80
22360;DHT22;11347;52.030;4.690;2022-10-31T08:10:27;18.10;72.80
22360;DHT22;11347;52.030;4.690;2022-10-31T08:13:01;18.10;72.80
22360;DHT22;11347;52.030;4.690;2022-10-31T08:15:27;18.10;72.70
22360;DHT22;11347;52.030;4.690;2022-10-31T08:17:53;18.10;72.50
22360;DHT22;11347;52.030;4.690;2022-10-31T08:20:19;18.10;72.30
22360;DHT22;11347;52.030;4.690;2022-10-31T08:25:20;18.10;72.20
22360;DHT22;11347;52.030;4.690;2022-10-31T08:27:53;18.10;72.80
22360;DHT22;11347;52.030;4.690;2022-10-31T08:30:20;18.10;72.80
22360;DHT22;11347;52.030;4.690;2022-10-31T08:32:46;18.10;72.80
22360;DHT22;11347;52.030;4.690;2022-10-31T08:35:11;18.10;72.80
22360;DHT22;11347;52.030;4.690;2022-10-31T08:37:37;18.20;72.50
22360;DHT22;11347;52.030;4.690;2022-10-31T08:40:03;18.10;72.10
22360;DHT22;11347;52.030;4.690;2022-10-31T08:42:29;18.20;72.10
22360;DHT22;11347;52.030;4.690;2022-10-31T08:44:54;18.10;71.80
22360;DHT22;11347;52.030;4.690;2022-10-31T08:47:20;18.20;71.80
22360;DHT22;11347;52.030;4.690;2022-10-31T08:49:45;18.20;71.70
22360;DHT22;11347;52.030;4.690;2022-10-31T08:52:11;18.20;71.60
22360;DHT22;11347;52.030;4.690;2022-10-31T08:54:36;18.20;71.40
22360;DHT22;11347;52.030;4.690;2022-10-31T08:57:02;18.20;71.20
22360;DHT22;11347;52.030;4.690;2022-10-31T08:59:28;18.20;71.20
22360;DHT22;11347;52.030;4.690;2022-10-31T09:01:53;18.20;71.10
22360;DHT22;11347;52.030;4.690;2022-10-31T09:04:19;18.20;71.10
22360;DHT22;11347;52.030;4.690;2022-10-31T09:06:44;18.30;71.20
22360;DHT22;11347;52.030;4.690;2022-10-31T09:09:10;18.20;71.00
22360;DHT22;11347;52.030;4.690;2022-10-31T09:11:35;18.20;71.00
22360;DHT22;11347;52.030;4.690;2022-10-31T09:14:01;18.30;71.10
22360;DHT22;11347;52.030;4.690;2022-10-31T09:16:26;18.30;71.10
22360;DHT22;11347;52.030;4.690;2022-10-31T09:18:52;18.30;71.10
22360;DHT22;11347;52.030;4.690;2022-10-31T09:21:17;18.30;71.10
22360;DHT22;11347;52.030;4.690;2022-10-31T09:23:43;18.30;71.10
22360;DHT22;11347;52.030;4.690;2022-10-31T09:26:08;18.30;71.10
22360;DHT22;11347;52.030;4.690;2022-10-31T09:28:34;18.30;71.10
22360;DHT22;11347;52.030;4.690;2022-10-31T09:30:59;18.30;71.10
22360;DHT22;11347;52.030;4.690;2022-10-31T09:33:25;18.30;71.10
22360;DHT22;11347;52.030;4.690;2022-10-31T09:35:51;18.30;71.10
22360;DHT22;11347;52.030;4.690;2022-10-31T09:38:20;18.40;71.10
22360;DHT22;11347;52.030;4.690;2022-10-31T09:41:05;18.40;71.10
22360;DHT22;11347;52.030;4.690;2022-10-31T09:44:03;18.40;71.10
22360;DHT22;11347;52.030;4.690;2022-10-31T09:49:07;18.40;71.10
22360;DHT22;11347;52.030;4.690;2022-10-31T09:51:41;18.40;71.10
22360;DHT22;11347;52.030;4.690;2022-10-31T09:54:21;18.40;71.00
22360;DHT22;11347;52.030;4.690;2022-10-31T09:56:49;18.40;71.00
22360;DHT22;11347;52.030;4.690;2022-10-31T09:59:35;18.40;71.10
22360;DHT22;11347;52.030;4.690;2022-10-31T10:02:21;18.40;70.90
22360;DHT22;11347;52.030;4.690;2022-10-31T10:05:01;18.40;70.90
22360;DHT22;11347;52.030;4.690;2022-10-31T10:07:55;18.50;71.00
22360;DHT22;11347;52.030;4.690;2022-10-31T10:13:01;18.50;70.90
22360;DHT22;11347;52.030;4.690;2022-10-31T10:25:39;18.60;70.70
22360;DHT22;11347;52.030;4.690;2022-10-31T10:31:05;18.60;70.60
22360;DHT22;11347;52.030;4.690;2022-10-31T10:33:40;18.60;70.60
22360;DHT22;11347;52.030;4.690;2022-10-31T10:36:16;18.60;70.60
22360;DHT22;11347;52.030;4.690;2022-10-31T10:39:07;18.60;70.70
22360;DHT22;11347;52.030;4.690;2022-10-31T10:41:41;18.60;70.60
22360;DHT22;11347;52.030;4.690;2022-10-31T10:44:11;18.60;70.70
22360;DHT22;11347;52.030;4.690;2022-10-31T10:46:48;18.70;70.80
22360;DHT22;11347;52.030;4.690;2022-10-31T10:49:45;18.70;70.80
22360;DHT22;11347;52.030;4.690;2022-10-31T10:52:34;18.70;70.80
22360;DHT22;11347;52.030;4.690;2022-10-31T10:58:13;18.80;70.90
22360;DHT22;11347;52.030;4.690;2022-10-31T11:00:44;18.80;70.90
22360;DHT22;11347;52.030;4.690;2022-10-31T11:03:11;18.80;70.90
22360;DHT22;11347;52.030;4.690;2022-10-31T11:08:33;18.80;70.80
22360;DHT22;11347;52.030;4.690;2022-10-31T11:11:25;18.80;70.80
22360;DHT22;11347;52.030;4.690;2022-10-31T11:14:12;18.80;70.80
22360;DHT22;11347;52.030;4.690;2022-10-31T11:16:42;18.80;70.80
22360;DHT22;11347;52.030;4.690;2022-10-31T11:21:34;18.90;70.80
22360;DHT22;11347;52.030;4.690;2022-10-31T11:26:32;18.90;70.70
22360;DHT22;11347;52.030;4.690;2022-10-31T11:29:00;18.90;70.60
22360;DHT22;11347;52.030;4.690;2022-10-31T11:31:28;18.90;70.50
22360;DHT22;11347;52.030;4.690;2022-10-31T11:34:00;19.00;70.50
22360;DHT22;11347;52.030;4.690;2022-10-31T11:36:29;19.00;70.50
22360;DHT22;11347;52.030;4.690;2022-10-31T11:38:55;19.00;70.40
22360;DHT22;11347;52.030;4.690;2022-10-31T11:41:33;19.00;70.40
22360;DHT22;11347;52.030;4.690;2022-10-31T11:44:02;19.00;70.40
22360;DHT22;11347;52.030;4.690;2022-10-31T11:46:34;18.90;70.30
22360;DHT22;11347;52.030;4.690;2022-10-31T11:49:01;19.00;70.40
22360;DHT22;11347;52.030;4.690;2022-10-31T11:51:29;19.00;70.40
22360;DHT22;11347;52.030;4.690;2022-10-31T11:53:57;19.00;70.40
22360;DHT22;11347;52.030;4.690;2022-10-31T11:56:23;18.90;70.40
22360;DHT22;11347;52.030;4.690;2022-10-31T11:59:03;19.00;70.40
22360;DHT22;11347;52.030;4.690;2022-10-31T12:01:30;19.00;70.40
22360;DHT22;11347;52.030;4.690;2022-10-31T12:04:12;19.00;70.40
22360;DHT22;11347;52.030;4.690;2022-10-31T12:06:40;19.00;70.40
22360;DHT22;11347;52.030;4.690;2022-10-31T12:09:27;19.00;70.40
22360;DHT22;11347;52.030;4.690;2022-10-31T12:12:37;19.40;70.70
22360;DHT22;11347;52.030;4.690;2022-10-31T12:15:27;19.00;70.40
22360;DHT22;11347;52.030;4.690;2022-10-31T12:18:22;19.10;70.50
22360;DHT22;11347;52.030;4.690;2022-10-31T12:21:48;19.00;70.40
22360;DHT22;11347;52.030;4.690;2022-10-31T12:24:07;19.10;70.40
22360;DHT22;11347;52.030;4.690;2022-10-31T12:31:55;19.10;70.30
22360;DHT22;11347;52.030;4.690;2022-10-31T12:34:56;19.10;70.40
22360;DHT22;11347;52.030;4.690;2022-10-31T12:40:36;19.10;70.30
22360;DHT22;11347;52.030;4.690;2022-10-31T12:43:27;19.20;70.40
22360;DHT22;11347;52.030;4.690;2022-10-31T12:45:56;19.10;70.20
22360;DHT22;11347;52.030;4.690;2022-10-31T12:48:27;19.20;70.30
22360;DHT22;11347;52.030;4.690;2022-10-31T12:51:12;19.20;70.40
22360;DHT22;11347;52.030;4.690;2022-10-31T12:56:10;19.10;70.30
22360;DHT22;11347;52.030;4.690;2022-10-31T12:58:49;19.20;70.30
22360;DHT22;11347;52.030;4.690;2022-10-31T13:04:21;19.20;70.30
22360;DHT22;11347;52.030;4.690;2022-10-31T13:06:54;19.20;70.30
22360;DHT22;11347;52.030;4.690;2022-10-31T13:09:29;19.20;70.30
22360;DHT22;11347;52.030;4.690;2022-10-31T13:12:00;19.20;70.30
22360;DHT22;11347;52.030;4.690;2022-10-31T13:14:43;19.10;70.30
22360;DHT22;11347;52.030;4.690;2022-10-31T13:19:54;19.20;70.40
22360;DHT22;11347;52.030;4.690;2022-10-31T13:22:26;19.20;70.40
22360;DHT22;11347;52.030;4.690;2022-10-31T13:27:30;19.20;70.30
22360;DHT22;11347;52.030;4.690;2022-10-31T13:30:14;19.20;70.40
22360;DHT22;11347;52.030;4.690;2022-10-31T13:32:48;19.20;70.40
22360;DHT22;11347;52.030;4.690;2022-10-31T13:35:29;19.20;70.30
22360;DHT22;11347;52.030;4.690;2022-10-31T13:38:10;19.20;70.40
22360;DHT22;11347;52.030;4.690;2022-10-31T13:43:17;19.20;70.40
22360;DHT22;11347;52.030;4.690;2022-10-31T13:45:52;19.10;70.30
22360;DHT22;11347;52.030;4.690;2022-10-31T13:51:01;19.10;70.30
22360;DHT22;11347;52.030;4.690;2022-10-31T13:54:19;19.10;70.30
22360;DHT22;11347;52.030;4.690;2022-10-31T13:56:49;19.10;70.30
22360;DHT22;11347;52.030;4.690;2022-10-31T13:59:22;19.10;70.40
22360;DHT22;11347;52.030;4.690;2022-10-31T14:01:58;19.10;70.40
22360;DHT22;11347;52.030;4.690;2022-10-31T14:04:36;19.10;70.50
22360;DHT22;11347;52.030;4.690;2022-10-31T14:07:11;19.10;70.50
22360;DHT22;11347;52.030;4.690;2022-10-31T14:12:27;19.10;70.60
22360;DHT22;11347;52.030;4.690;2022-10-31T14:15:02;19.10;70.60
22360;DHT22;11347;52.030;4.690;2022-10-31T14:17:31;19.10;70.60
22360;DHT22;11347;52.030;4.690;2022-10-31T14:20:37;19.10;70.70
22360;DHT22;11347;52.030;4.690;2022-10-31T14:25:53;19.10;70.70
22360;DHT22;11347;52.030;4.690;2022-10-31T14:28:32;19.10;70.70
22360;DHT22;11347;52.030;4.690;2022-10-31T14:30:59;19.10;70.70
22360;DHT22;11347;52.030;4.690;2022-10-31T14:33:30;19.10;70.70
22360;DHT22;11347;52.030;4.690;2022-10-31T14:36:25;19.10;70.70
22360;DHT22;11347;52.030;4.690;2022-10-31T14:44:48;19.10;70.80
22360;DHT22;11347;52.030;4.690;2022-10-31T14:47:36;19.10;70.80
22360;DHT22;11347;52.030;4.690;2022-10-31T14:50:08;19.10;70.90
22360;DHT22;11347;52.030;4.690;2022-10-31T14:52:38;19.00;70.80
22360;DHT22;11347;52.030;4.690;2022-10-31T14:55:07;19.00;70.90
22360;DHT22;11347;52.030;4.690;2022-10-31T14:57:37;19.00;70.90
22360;DHT22;11347;52.030;4.690;2022-10-31T15:00:08;19.00;70.90
22360;DHT22;11347;52.030;4.690;2022-10-31T15:05:20;19.00;71.00
22360;DHT22;11347;52.030;4.690;2022-10-31T15:07:54;19.00;71.00
22360;DHT22;11347;52.030;4.690;2022-10-31T15:12:52;19.00;71.10
22360;DHT22;11347;52.030;4.690;2022-10-31T15:15:25;19.00;71.10
22360;DHT22;11347;52.030;4.690;2022-10-31T15:17:59;19.00;71.10
22360;DHT22;11347;52.030;4.690;2022-10-31T15:20:28;19.00;71.10
22360;DHT22;11347;52.030;4.690;2022-10-31T15:22:58;19.00;71.20
22360;DHT22;11347;52.030;4.690;2022-10-31T15:25:26;19.00;71.30
22360;DHT22;11347;52.030;4.690;2022-10-31T15:27:53;19.00;71.30
22360;DHT22;11347;52.030;4.690;2022-10-31T15:30:20;18.90;71.20
22360;DHT22;11347;52.030;4.690;2022-10-31T15:32:46;19.00;71.30
22360;DHT22;11347;52.030;4.690;2022-10-31T15:35:23;19.00;71.40
22360;DHT22;11347;52.030;4.690;2022-10-31T15:37:51;19.00;71.40
22360;DHT22;11347;52.030;4.690;2022-10-31T15:40:18;18.90;71.30
22360;DHT22;11347;52.030;4.690;2022-10-31T15:42:51;18.90;71.40
22360;DHT22;11347;52.030;4.690;2022-10-31T15:45:23;18.90;71.40
22360;DHT22;11347;52.030;4.690;2022-10-31T15:50:27;18.90;71.60
22360;DHT22;11347;52.030;4.690;2022-10-31T15:52:54;18.90;71.60
22360;DHT22;11347;52.030;4.690;2022-10-31T15:55:28;18.90;71.70
22360;DHT22;11347;52.030;4.690;2022-10-31T15:58:03;18.90;71.60
22360;DHT22;11347;52.030;4.690;2022-10-31T16:00:37;18.80;71.60
22360;DHT22;11347;52.030;4.690;2022-10-31T16:03:19;18.90;71.70
22360;DHT22;11347;52.030;4.690;2022-10-31T16:05:51;18.90;71.80
22360;DHT22;11347;52.030;4.690;2022-10-31T16:13:37;18.80;71.80
22360;DHT22;11347;52.030;4.690;2022-10-31T16:16:13;18.80;71.90
22360;DHT22;11347;52.030;4.690;2022-10-31T16:18:40;18.80;71.90
22360;DHT22;11347;52.030;4.690;2022-10-31T16:21:08;18.80;71.90
22360;DHT22;11347;52.030;4.690;2022-10-31T16:23:34;18.80;72.00
22360;DHT22;11347;52.030;4.690;2022-10-31T16:26:05;18.80;72.00
22360;DHT22;11347;52.030;4.690;2022-10-31T16:28:31;18.80;72.00
22360;DHT22;11347;52.030;4.690;2022-10-31T16:30:59;18.80;72.00
22360;DHT22;11347;52.030;4.690;2022-10-31T16:33:35;18.80;72.00
22360;DHT22;11347;52.030;4.690;2022-10-31T16:38:55;18.80;72.10
22360;DHT22;11347;52.030;4.690;2022-10-31T16:41:21;18.80;72.10
22360;DHT22;11347;52.030;4.690;2022-10-31T16:43:48;18.80;72.10
22360;DHT22;11347;52.030;4.690;2022-10-31T16:46:24;18.80;72.20
22360;DHT22;11347;52.030;4.690;2022-10-31T16:48:50;18.70;72.10
22360;DHT22;11347;52.030;4.690;2022-10-31T16:51:15;18.70;72.20
22360;DHT22;11347;52.030;4.690;2022-10-31T16:53:41;18.70;72.20
22360;DHT22;11347;52.030;4.690;2022-10-31T16:56:16;18.70;72.20
22360;DHT22;11347;52.030;4.690;2022-10-31T16:58:43;18.70;72.20
22360;DHT22;11347;52.030;4.690;2022-10-31T17:01:09;18.80;72.30
22360;DHT22;11347;52.030;4.690;2022-10-31T17:03:36;18.70;72.30
22360;DHT22;11347;52.030;4.690;2022-10-31T17:06:02;18.70;72.30
22360;DHT22;11347;52.030;4.690;2022-10-31T17:08:28;18.70;72.30
22360;DHT22;11347;52.030;4.690;2022-10-31T17:10:55;18.70;72.30
22360;DHT22;11347;52.030;4.690;2022-10-31T17:13:23;18.70;72.20
22360;DHT22;11347;52.030;4.690;2022-10-31T17:15:51;18.70;72.30
22360;DHT22;11347;52.030;4.690;2022-10-31T17:18:18;18.70;72.30
22360;DHT22;11347;52.030;4.690;2022-10-31T17:20:44;18.70;72.20
22360;DHT22;11347;52.030;4.690;2022-10-31T17:23:12;18.70;72.20
22360;DHT22;11347;52.030;4.690;2022-10-31T17:25:37;18.70;72.20
22360;DHT22;11347;52.030;4.690;2022-10-31T17:28:04;18.70;72.30